Time;durP1;ratioP1;P1;durP2;ratioP2;P2;SDS_P1;SDS_P2;PMS_P1;PMS_P2;Temp;Humidity;BMP_temperature;BMP_pressure;BME280_temperature;BME280_humidity;BME280_pressure;Samples;Min_cycle;Max_cycle;Signal;HPM_P1;HPM_P2
2022/04/10 00:01:07;;;;;;;7.53;4.65;;;8.90;95.50;;;;;;5074029;28;20256;-63
2022/04/10 00:03:35;;;;;;;6.40;3.78;;;8.90;95.60;;;;;;5074365;28;20220;-64
2022/04/10 00:06:02;;;;;;;4.15;2.45;;;8.90;95.60;;;;;;5073786;28;20224;-65
2022/04/10 00:08:29;;;;;;;3.28;2.45;;;8.90;95.70;;;;;;5074529;28;20236;-64
2022/04/10 00:10:56;;;;;;;7.40;5.45;;;8.90;95.70;;;;;;5073651;28;20224;-63
2022/04/10 00:13:23;;;;;;;5.43;4.15;;;8.90;96.10;;;;;;5074079;28;20320;-63
2022/04/10 00:15:49;;;;;;;11.65;6.90;;;8.80;95.70;;;;;;5073675;28;20220;-63
2022/04/10 00:18:16;;;;;;;8.93;4.97;;;8.80;95.70;;;;;;5074351;28;20225;-63
2022/04/10 00:20:44;;;;;;;6.15;3.22;;;8.90;95.60;;;;;;5074001;28;20229;-63
2022/04/10 00:23:11;;;;;;;4.38;2.60;;;8.80;95.50;;;;;;5066172;28;20694;-63
2022/04/10 00:25:38;;;;;;;21.15;13.65;;;8.80;95.60;;;;;;5072917;28;20311;-63
2022/04/10 00:28:05;;;;;;;14.95;7.28;;;8.80;95.90;;;;;;5073423;28;20232;-63
2022/04/10 00:30:34;;;;;;;21.75;13.13;;;8.80;95.90;;;;;;5073313;28;20231;-63
2022/04/10 00:33:02;;;;;;;10.88;7.05;;;8.70;95.90;;;;;;5073171;28;20662;-63
2022/04/10 00:35:31;;;;;;;21.08;14.85;;;8.70;95.80;;;;;;5073688;28;20563;-63
2022/04/10 00:38:00;;;;;;;9.52;6.70;;;8.70;96.10;;;;;;5073073;28;20216;-63
2022/04/10 00:40:27;;;;;;;7.28;4.32;;;8.70;96.10;;;;;;5060632;28;20227;-63
2022/04/10 00:42:56;;;;;;;9.63;6.63;;;8.70;96.20;;;;;;5072992;28;20590;-63
2022/04/10 00:45:23;;;;;;;12.70;9.95;;;8.70;96.40;;;;;;5073541;28;20678;-63
2022/04/10 00:47:51;;;;;;;13.27;8.73;;;8.70;96.40;;;;;;5072776;28;20239;-63
2022/04/10 00:50:20;;;;;;;11.98;7.80;;;8.70;96.30;;;;;;5073458;28;20674;-64
2022/04/10 00:52:49;;;;;;;22.30;14.57;;;8.70;96.50;;;;;;5073137;28;20231;-62
2022/04/10 00:55:18;;;;;;;10.10;8.18;;;8.70;96.60;;;;;;5073423;28;20216;-63
2022/04/10 00:57:47;;;;;;;18.52;12.82;;;8.70;96.70;;;;;;5073410;28;20621;-64
2022/04/10 01:00:16;;;;;;;6.03;4.85;;;8.70;96.60;;;;;;5072896;28;20279;-64
2022/04/10 01:02:43;;;;;;;15.63;12.35;;;8.70;96.50;;;;;;5073205;28;20674;-64
2022/04/10 01:05:10;;;;;;;29.50;17.63;;;8.70;96.60;;;;;;5072951;28;20223;-63
2022/04/10 01:07:38;;;;;;;11.05;7.88;;;8.70;96.80;;;;;;5073007;28;20311;-63
2022/04/10 01:10:06;;;;;;;4.78;3.78;;;8.70;96.70;;;;;;5072862;28;20689;-63
2022/04/10 01:12:36;;;;;;;8.75;5.35;;;8.70;96.40;;;;;;5069397;28;20225;-63
2022/04/10 01:15:05;;;;;;;4.82;4.15;;;8.60;96.50;;;;;;5064638;28;20220;-63
2022/04/10 01:17:35;;;;;;;19.05;14.25;;;8.60;96.40;;;;;;5072882;28;20223;-63
2022/04/10 01:20:03;;;;;;;7.40;5.43;;;8.60;96.60;;;;;;5071706;28;20236;-63
2022/04/10 01:22:35;;;;;;;13.10;9.50;;;8.50;96.60;;;;;;5072383;28;20256;-63
2022/04/10 01:25:06;;;;;;;7.03;5.65;;;8.50;96.80;;;;;;5072280;28;20224;-63
2022/04/10 01:27:37;;;;;;;9.07;6.35;;;8.50;96.70;;;;;;5073016;28;20655;-62
2022/04/10 01:30:05;;;;;;;7.32;4.75;;;8.50;96.80;;;;;;5072323;28;20223;-63
2022/04/10 01:32:32;;;;;;;4.90;3.42;;;8.40;96.80;;;;;;5072506;28;20232;-63
2022/04/10 01:35:01;;;;;;;5.43;3.70;;;8.50;96.60;;;;;;5072095;28;20327;-64
2022/04/10 01:37:29;;;;;;;36.00;25.02;;;8.50;96.70;;;;;;5072436;28;20220;-63
2022/04/10 01:39:58;;;;;;;9.43;4.72;;;8.50;96.80;;;;;;5071882;28;20273;-63
2022/04/10 01:42:25;;;;;;;12.07;8.73;;;8.40;96.80;;;;;;5072510;28;20670;-63
2022/04/10 01:44:52;;;;;;;4.80;3.65;;;8.40;96.90;;;;;;5072196;28;20600;-63
2022/04/10 01:47:19;;;;;;;3.85;3.53;;;8.40;96.80;;;;;;5071912;28;20223;-62
2022/04/10 01:49:46;;;;;;;18.98;9.30;;;8.40;96.70;;;;;;5072704;28;20228;-64
2022/04/10 01:52:12;;;;;;;7.13;3.88;;;8.40;96.90;;;;;;5071759;28;20251;-63
2022/04/10 01:54:39;;;;;;;10.50;6.30;;;8.40;96.70;;;;;;5072390;28;20561;-63
2022/04/10 01:57:08;;;;;;;7.90;6.60;;;8.40;96.80;;;;;;5072156;28;20224;-64
2022/04/10 01:59:35;;;;;;;8.23;5.93;;;8.40;97.30;;;;;;5072399;28;20271;-63
2022/04/10 02:02:02;;;;;;;7.43;4.63;;;8.40;96.80;;;;;;5071603;28;20223;-64
2022/04/10 02:04:30;;;;;;;12.80;9.55;;;8.40;96.80;;;;;;5072311;28;20216;-64
2022/04/10 02:06:57;;;;;;;17.48;9.70;;;8.40;96.80;;;;;;5072103;28;20248;-64
2022/04/10 02:09:24;;;;;;;5.88;3.50;;;8.40;96.80;;;;;;5072295;28;20212;-64
2022/04/10 02:11:51;;;;;;;5.95;3.60;;;8.40;96.70;;;;;;5072289;28;20573;-63
2022/04/10 02:14:19;;;;;;;10.45;8.25;;;8.40;96.70;;;;;;5061672;28;20290;-63
2022/04/10 02:16:46;;;;;;;7.93;4.70;;;8.40;96.80;;;;;;5068828;28;20568;-64
2022/04/10 02:19:12;;;;;;;21.05;12.50;;;8.40;96.70;;;;;;5071861;28;20238;-64
2022/04/10 02:21:39;;;;;;;7.63;4.00;;;8.40;96.60;;;;;;5071797;28;20224;-63
2022/04/10 02:24:07;;;;;;;6.25;3.75;;;8.40;96.60;;;;;;5071830;28;20235;-63
2022/04/10 02:26:33;;;;;;;9.95;4.15;;;8.40;96.60;;;;;;5067860;28;20538;-63
2022/04/10 02:29:00;;;;;;;7.40;6.03;;;8.40;96.60;;;;;;5071707;28;20216;-64
2022/04/10 02:31:28;;;;;;;9.10;7.80;;;8.40;96.60;;;;;;5072052;28;20224;-63
2022/04/10 02:33:55;;;;;;;7.43;4.60;;;8.40;96.70;;;;;;5072024;28;20224;-64
2022/04/10 02:36:22;;;;;;;32.35;20.38;;;8.40;96.70;;;;;;5071609;28;20220;-65
2022/04/10 02:38:49;;;;;;;10.77;7.75;;;8.40;96.90;;;;;;5072409;28;20216;-64
2022/04/10 02:41:16;;;;;;;8.18;5.10;;;8.30;96.80;;;;;;5071214;28;20228;-64
2022/04/10 02:43:43;;;;;;;8.13;5.10;;;8.40;96.70;;;;;;5071827;28;20219;-65
2022/04/10 02:46:10;;;;;;;10.13;6.43;;;8.30;96.80;;;;;;5071575;28;20220;-63
2022/04/10 02:48:38;;;;;;;9.93;8.32;;;8.30;96.70;;;;;;5071664;28;20484;-63
2022/04/10 02:51:04;;;;;;;6.20;4.85;;;8.30;96.50;;;;;;5063133;28;20220;-63
2022/04/10 02:53:32;;;;;;;18.60;11.90;;;8.40;96.80;;;;;;5075623;28;20220;-64
2022/04/10 02:55:58;;;;;;;7.03;4.30;;;8.30;96.60;;;;;;5075563;28;20220;-63
2022/04/10 02:58:26;;;;;;;7.97;5.20;;;8.40;96.60;;;;;;5075711;28;20562;-64
2022/04/10 03:00:53;;;;;;;6.18;3.97;;;8.40;96.70;;;;;;5075682;28;20239;-63
2022/04/10 03:03:19;;;;;;;9.50;6.18;;;8.40;96.60;;;;;;5075152;28;20577;-63
2022/04/10 03:05:47;;;;;;;5.50;4.07;;;8.30;96.60;;;;;;5075684;28;20220;-63
2022/04/10 03:08:14;;;;;;;4.15;3.45;;;8.20;96.60;;;;;;5075077;28;20223;-63
2022/04/10 03:10:44;;;;;;;8.40;6.00;;;8.30;96.80;;;;;;5075260;28;20532;-63
2022/04/10 03:13:11;;;;;;;9.00;5.22;;;8.30;96.80;;;;;;5071982;28;20239;-63
2022/04/10 03:15:38;;;;;;;5.05;3.72;;;8.30;96.80;;;;;;5057414;28;20221;-64
2022/04/10 03:18:05;;;;;;;6.38;4.35;;;8.40;96.60;;;;;;5067232;28;20319;-65
2022/04/10 03:20:32;;;;;;;5.38;4.50;;;8.30;96.60;;;;;;5075190;28;20225;-64
2022/04/10 03:23:00;;;;;;;11.52;6.88;;;8.30;96.60;;;;;;5075281;28;20234;-63
2022/04/10 03:25:27;;;;;;;9.85;5.47;;;8.30;96.50;;;;;;5070392;28;20224;-64
2022/04/10 03:27:54;;;;;;;4.75;2.80;;;8.40;96.60;;;;;;5075327;28;20685;-64
2022/04/10 03:30:21;;;;;;;5.95;3.65;;;8.30;96.30;;;;;;5074572;28;20233;-64
2022/04/10 03:32:47;;;;;;;6.20;4.50;;;8.30;96.50;;;;;;5075240;28;20220;-63
2022/04/10 03:35:14;;;;;;;4.80;3.72;;;8.30;96.40;;;;;;5074655;28;20231;-63
2022/04/10 03:37:43;;;;;;;10.32;5.53;;;8.30;96.20;;;;;;5075027;28;20223;-63
2022/04/10 03:40:13;;;;;;;9.88;6.13;;;8.30;96.40;;;;;;5073867;28;20228;-63
2022/04/10 03:42:40;;;;;;;14.02;7.60;;;8.30;96.40;;;;;;5074762;28;20310;-63
2022/04/10 03:45:09;;;;;;;6.47;4.53;;;8.30;96.50;;;;;;5074538;28;20306;-63
2022/04/10 03:47:36;;;;;;;9.90;4.25;;;8.30;96.40;;;;;;5074838;28;20219;-63
2022/04/10 03:50:03;;;;;;;3.65;3.35;;;8.30;96.30;;;;;;5074825;28;20224;-63
2022/04/10 03:52:30;;;;;;;6.07;4.05;;;8.20;96.40;;;;;;5073820;28;20243;-63
2022/04/10 03:54:57;;;;;;;7.88;3.63;;;8.20;96.50;;;;;;5074283;28;20235;-63
2022/04/10 03:57:25;;;;;;;6.28;4.15;;;8.20;96.50;;;;;;5074502;28;20597;-63
2022/04/10 03:59:52;;;;;;;6.82;3.95;;;8.20;96.50;;;;;;5074376;28;20220;-63
2022/04/10 04:02:19;;;;;;;4.25;3.55;;;8.20;96.50;;;;;;5074086;28;20282;-64
2022/04/10 04:04:46;;;;;;;6.35;4.60;;;8.20;96.50;;;;;;5074159;28;20234;-64
2022/04/10 04:07:13;;;;;;;9.88;4.50;;;8.20;96.40;;;;;;5074055;28;20567;-63
2022/04/10 04:09:40;;;;;;;7.18;3.40;;;8.30;96.20;;;;;;5073976;28;20232;-64
2022/04/10 04:12:11;;;;;;;8.88;4.88;;;8.30;96.40;;;;;;5074323;28;20243;-64
2022/04/10 04:14:39;;;;;;;10.35;6.60;;;8.30;96.40;;;;;;5063515;28;20231;-64
2022/04/10 04:17:06;;;;;;;22.40;14.85;;;8.30;96.40;;;;;;5073800;28;20331;-65
2022/04/10 04:19:33;;;;;;;4.68;3.20;;;8.30;96.40;;;;;;5073886;28;20228;-63
2022/04/10 04:22:00;;;;;;;10.20;5.25;;;8.30;96.50;;;;;;5066668;28;20232;-64
2022/04/10 04:24:35;;;;;;;16.55;11.25;;;8.30;96.30;;;;;;5071527;28;20228;-64
2022/04/10 04:27:02;;;;;;;7.40;4.15;;;8.30;96.40;;;;;;5073471;28;20234;-64
2022/04/10 04:29:29;;;;;;;5.15;3.42;;;8.30;96.20;;;;;;5073611;28;20224;-64
2022/04/10 04:31:58;;;;;;;7.78;3.95;;;8.20;96.00;;;;;;5073758;28;20568;-64
2022/04/10 04:34:24;;;;;;;10.00;6.22;;;8.20;96.00;;;;;;5073620;28;20342;-64
2022/04/10 04:36:51;;;;;;;10.85;5.82;;;8.20;96.20;;;;;;5060698;28;20566;-65
2022/04/10 04:39:18;;;;;;;7.90;4.10;;;8.20;96.40;;;;;;5072912;28;20224;-63
2022/04/10 04:41:45;;;;;;;6.15;4.30;;;8.30;96.20;;;;;;5073812;28;20250;-63
2022/04/10 04:44:13;;;;;;;13.60;5.22;;;8.30;96.10;;;;;;5073212;28;20224;-64
2022/04/10 04:46:39;;;;;;;8.77;3.80;;;8.20;96.00;;;;;;5073355;28;20232;-63
2022/04/10 04:49:07;;;;;;;13.73;4.20;;;8.20;95.90;;;;;;5073540;28;20216;-64
2022/04/10 04:51:36;;;;;;;7.97;3.80;;;8.20;96.00;;;;;;5072322;28;20314;-64
2022/04/10 04:54:03;;;;;;;7.35;5.15;;;8.20;96.00;;;;;;5068160;28;20224;-64
2022/04/10 04:56:30;;;;;;;7.75;3.47;;;8.20;96.10;;;;;;5073016;28;20247;-64
2022/04/10 04:58:57;;;;;;;6.97;3.63;;;8.20;96.20;;;;;;5073476;28;20227;-63
2022/04/10 05:01:24;;;;;;;10.38;5.93;;;8.20;96.10;;;;;;5072951;28;20232;-63
2022/04/10 05:03:51;;;;;;;12.13;5.35;;;8.20;96.10;;;;;;5073325;28;20231;-63
2022/04/10 05:06:19;;;;;;;6.57;3.83;;;8.20;96.10;;;;;;5072958;28;20228;-64
2022/04/10 05:08:46;;;;;;;8.07;3.60;;;8.20;96.10;;;;;;5073269;28;20226;-63
2022/04/10 05:11:13;;;;;;;7.90;5.03;;;8.20;96.10;;;;;;5072659;28;20236;-64
2022/04/10 05:13:41;;;;;;;7.82;4.28;;;8.20;96.10;;;;;;5071869;28;20228;-64
2022/04/10 05:16:08;;;;;;;12.02;3.92;;;8.20;96.30;;;;;;5073044;28;20236;-63
2022/04/10 05:18:35;;;;;;;5.90;3.10;;;8.20;96.20;;;;;;5072695;28;20744;-64
2022/04/10 05:21:02;;;;;;;18.65;10.98;;;8.30;96.20;;;;;;5072818;28;20561;-64
2022/04/10 05:23:31;;;;;;;7.22;3.42;;;8.30;96.30;;;;;;5072751;28;20220;-63
2022/04/10 05:25:58;;;;;;;12.00;6.65;;;8.30;96.20;;;;;;5071150;28;20673;-63
2022/04/10 05:28:25;;;;;;;11.95;9.18;;;8.30;96.20;;;;;;5071627;28;20228;-63
2022/04/10 05:30:52;;;;;;;11.15;3.45;;;8.40;96.40;;;;;;5072722;28;20225;-64
2022/04/10 05:33:19;;;;;;;6.63;3.65;;;8.40;96.00;;;;;;5072630;28;20228;-64
2022/04/10 05:35:47;;;;;;;12.43;4.25;;;8.40;95.80;;;;;;5073050;28;20709;-64
2022/04/10 05:38:14;;;;;;;6.68;4.03;;;8.40;96.00;;;;;;5071917;28;20228;-64
2022/04/10 05:40:42;;;;;;;11.40;6.65;;;8.40;96.10;;;;;;5070785;28;20692;-63
2022/04/10 05:43:09;;;;;;;8.45;4.25;;;8.40;96.00;;;;;;5071305;28;20224;-64
2022/04/10 05:45:35;;;;;;;12.45;5.28;;;8.50;96.00;;;;;;5070716;28;20235;-64
2022/04/10 05:48:02;;;;;;;4.65;3.92;;;8.50;96.00;;;;;;5071037;28;20314;-64
2022/04/10 05:50:29;;;;;;;5.55;4.05;;;8.50;95.90;;;;;;5070662;28;20569;-65
2022/04/10 05:52:56;;;;;;;8.43;5.45;;;8.60;95.70;;;;;;5072481;28;20228;-64
2022/04/10 05:55:24;;;;;;;6.68;4.28;;;8.60;95.80;;;;;;5072287;28;20243;-65
2022/04/10 05:57:52;;;;;;;6.65;3.40;;;8.70;95.70;;;;;;5072929;28;20223;-63
2022/04/10 06:00:21;;;;;;;5.22;4.47;;;8.70;95.50;;;;;;5072427;28;20228;-63
2022/04/10 06:02:48;;;;;;;5.72;3.40;;;8.80;95.60;;;;;;5072387;28;20297;-64
2022/04/10 06:05:14;;;;;;;9.52;4.10;;;8.70;95.30;;;;;;5072560;28;20224;-64
2022/04/10 06:07:41;;;;;;;7.30;4.18;;;8.80;95.30;;;;;;5072262;28;20662;-64
2022/04/10 06:10:09;;;;;;;10.27;6.20;;;8.80;95.30;;;;;;5072613;28;20235;-64
2022/04/10 06:12:36;;;;;;;5.82;4.70;;;8.80;95.30;;;;;;5071994;28;20239;-64
2022/04/10 06:15:05;;;;;;;11.77;6.93;;;8.80;95.20;;;;;;5072383;28;20738;-64
2022/04/10 06:17:32;;;;;;;12.73;4.57;;;8.80;95.20;;;;;;5072251;28;20224;-63
2022/04/10 06:19:59;;;;;;;9.05;4.28;;;8.90;95.30;;;;;;5072596;28;20230;-64
2022/04/10 06:22:25;;;;;;;8.30;5.70;;;8.90;95.20;;;;;;5072043;28;20228;-63
2022/04/10 06:24:52;;;;;;;12.30;6.90;;;9.00;95.00;;;;;;5074217;28;20701;-63
2022/04/10 06:27:20;;;;;;;6.78;3.83;;;9.00;94.70;;;;;;5076564;28;20230;-63
2022/04/10 06:29:47;;;;;;;9.35;4.72;;;9.00;94.70;;;;;;5076173;28;20220;-65
2022/04/10 06:32:15;;;;;;;9.52;3.83;;;9.00;94.70;;;;;;5076446;28;20238;-64
2022/04/10 06:34:42;;;;;;;8.90;4.35;;;8.90;94.40;;;;;;5075891;28;20220;-64
2022/04/10 06:37:09;;;;;;;13.23;5.90;;;8.90;94.50;;;;;;5076407;28;20235;-64
2022/04/10 06:39:36;;;;;;;5.82;4.30;;;9.00;94.50;;;;;;5075918;28;20220;-64
2022/04/10 06:42:06;;;;;;;12.38;6.45;;;9.00;94.70;;;;;;5076170;28;20223;-64
2022/04/10 06:44:33;;;;;;;6.57;3.63;;;9.00;94.70;;;;;;5075826;28;20224;-64
2022/04/10 06:47:00;;;;;;;6.53;3.25;;;9.00;94.70;;;;;;5076195;28;20857;-64
2022/04/10 06:49:28;;;;;;;10.90;3.90;;;9.10;94.70;;;;;;5075770;28;20228;-64
2022/04/10 06:51:55;;;;;;;6.95;3.30;;;9.10;94.40;;;;;;5075984;28;20228;-63
2022/04/10 06:54:21;;;;;;;7.88;3.30;;;9.20;94.50;;;;;;5076210;28;20538;-63
2022/04/10 06:56:48;;;;;;;5.97;3.10;;;9.10;94.20;;;;;;5075519;28;20228;-64
2022/04/10 06:59:15;;;;;;;7.88;3.25;;;9.20;94.30;;;;;;5075797;28;20682;-64
2022/04/10 07:01:42;;;;;;;5.07;2.95;;;9.20;94.30;;;;;;5075353;28;20239;-64
2022/04/10 07:04:09;;;;;;;11.75;5.72;;;9.20;94.30;;;;;;5075757;28;20572;-64
2022/04/10 07:06:37;;;;;;;11.93;6.90;;;9.30;94.40;;;;;;5075284;28;20311;-64
2022/04/10 07:09:04;;;;;;;8.00;5.63;;;9.30;94.50;;;;;;5075881;28;20227;-64
2022/04/10 07:11:31;;;;;;;6.45;3.60;;;9.40;94.50;;;;;;5075155;28;20235;-63
2022/04/10 07:13:58;;;;;;;11.88;5.00;;;9.40;93.90;;;;;;5075482;28;20274;-65
2022/04/10 07:16:25;;;;;;;13.60;6.80;;;9.50;93.50;;;;;;5075511;28;20569;-64
2022/04/10 07:18:52;;;;;;;11.88;6.22;;;9.50;93.40;;;;;;5075225;28;20220;-64
2022/04/10 07:23:41;;;;;;;9.93;5.15;;;9.50;93.40;;;;;;5075684;28;20554;-64
2022/04/10 07:24:07;;;;;;;6.07;4.53;;;9.50;93.30;;;;;;5075726;28;20247;-65
2022/04/10 07:26:34;;;;;;;8.90;4.90;;;9.50;93.50;;;;;;5075031;28;20227;-63
2022/04/10 07:29:01;;;;;;;9.77;5.15;;;9.60;93.40;;;;;;5075451;28;20531;-64
2022/04/10 07:31:27;;;;;;;4.72;3.13;;;9.60;93.60;;;;;;5074845;28;20232;-63
2022/04/10 07:33:54;;;;;;;6.82;4.55;;;9.60;93.50;;;;;;5075359;28;20303;-63
2022/04/10 07:36:21;;;;;;;8.65;4.32;;;9.60;93.50;;;;;;5073906;28;20228;-63
2022/04/10 07:38:48;;;;;;;10.95;5.45;;;9.60;93.60;;;;;;5075321;28;20230;-63
2022/04/10 07:41:16;;;;;;;6.07;4.18;;;9.70;93.60;;;;;;5074476;28;20232;-64
2022/04/10 07:43:43;;;;;;;9.10;3.67;;;9.70;93.40;;;;;;5075153;28;20231;-64
2022/04/10 07:48:54;;;;;;;16.77;4.28;;;9.80;93.30;;;;;;5075231;28;20227;-64
2022/04/10 07:51:20;;;;;;;8.07;3.83;;;9.90;93.10;;;;;;5074900;28;20231;-64
2022/04/10 07:53:47;;;;;;;7.95;4.63;;;9.90;93.10;;;;;;5074999;28;20550;-63
2022/04/10 07:56:15;;;;;;;10.23;4.72;;;10.00;92.70;;;;;;5074442;28;20228;-63
2022/04/10 07:58:42;;;;;;;15.65;4.65;;;10.00;92.20;;;;;;5074770;28;20220;-63
2022/04/10 08:01:09;;;;;;;5.88;4.25;;;10.00;92.20;;;;;;5074404;28;20232;-63
2022/04/10 08:03:36;;;;;;;5.82;3.45;;;9.90;92.70;;;;;;5074778;28;20231;-63
2022/04/10 08:06:03;;;;;;;10.20;4.10;;;10.00;92.20;;;;;;5074198;28;20211;-63
2022/04/10 08:08:29;;;;;;;6.60;3.40;;;9.90;92.90;;;;;;5074759;28;20278;-64
2022/04/10 08:10:56;;;;;;;4.93;3.67;;;9.80;93.00;;;;;;5074015;28;20220;-63
2022/04/10 08:13:24;;;;;;;5.18;3.10;;;9.80;93.20;;;;;;5074504;28;20289;-66
2022/04/10 08:15:51;;;;;;;7.18;3.25;;;9.90;93.40;;;;;;5074387;28;20228;-63
2022/04/10 08:18:18;;;;;;;6.07;4.15;;;9.80;93.20;;;;;;5074221;28;20683;-63
2022/04/10 08:20:45;;;;;;;9.32;4.10;;;9.90;93.10;;;;;;5074559;28;20569;-64
2022/04/10 08:23:12;;;;;;;5.53;3.50;;;9.90;93.00;;;;;;5074077;28;20220;-64
2022/04/10 08:25:39;;;;;;;10.35;4.00;;;9.90;92.70;;;;;;5074238;28;20220;-64
2022/04/10 08:28:06;;;;;;;7.05;3.53;;;9.90;92.50;;;;;;5073909;28;20239;-64
2022/04/10 08:30:34;;;;;;;7.30;3.33;;;10.00;91.70;;;;;;5074356;28;20670;-64
2022/04/10 08:33:03;;;;;;;5.75;3.17;;;10.10;91.70;;;;;;5073735;28;20496;-64
2022/04/10 08:35:31;;;;;;;10.32;3.58;;;10.10;91.80;;;;;;5074097;28;20281;-63
2022/04/10 08:37:59;;;;;;;9.95;4.13;;;10.20;91.80;;;;;;5073848;28;20216;-63
2022/04/10 08:40:26;;;;;;;7.47;3.47;;;10.20;91.70;;;;;;5073870;28;20220;-64
2022/04/10 08:42:55;;;;;;;5.85;3.22;;;10.30;91.30;;;;;;5073904;28;20231;-64
2022/04/10 08:45:26;;;;;;;9.55;6.13;;;10.40;91.10;;;;;;5073903;28;20216;-64
2022/04/10 08:47:56;;;;;;;6.55;3.45;;;10.50;91.10;;;;;;5072826;28;20226;-64
2022/04/10 08:50:24;;;;;;;6.25;3.15;;;10.60;91.20;;;;;;5073514;28;20269;-64
2022/04/10 08:52:54;;;;;;;6.78;3.50;;;10.70;90.70;;;;;;5073929;28;20224;-63
2022/04/10 08:55:21;;;;;;;7.22;4.40;;;10.80;90.70;;;;;;5073175;28;20654;-64
2022/04/10 08:57:48;;;;;;;14.00;7.18;;;10.90;90.70;;;;;;5073738;28;20220;-62
2022/04/10 09:00:18;;;;;;;9.18;5.50;;;10.90;90.70;;;;;;5073211;28;20228;-63
2022/04/10 09:02:49;;;;;;;9.05;4.30;;;10.90;90.20;;;;;;5073471;28;20228;-63
2022/04/10 09:05:19;;;;;;;5.57;2.80;;;10.90;90.40;;;;;;5073096;28;20252;-63
2022/04/10 09:08:10;;;;;;;12.02;5.47;;;10.80;91.10;;;;;;5073680;28;20289;-63
2022/04/10 09:10:58;;;;;;;10.52;3.95;;;10.80;92.00;;;;;;5073817;28;20224;-63
2022/04/10 09:13:27;;;;;;;6.25;3.75;;;10.80;92.00;;;;;;5073269;28;20246;-64
2022/04/10 09:16:01;;;;;;;7.68;3.88;;;10.80;92.00;;;;;;5073379;28;20224;-64
2022/04/10 09:18:28;;;;;;;4.72;2.90;;;10.90;92.10;;;;;;5072729;28;20219;-64
2022/04/10 09:21:08;;;;;;;9.63;3.40;;;10.90;91.70;;;;;;5073274;28;20285;-64
2022/04/10 09:23:35;;;;;;;9.82;3.22;;;11.00;92.00;;;;;;5072917;28;20353;-64
2022/04/10 09:26:02;;;;;;;6.20;3.28;;;11.10;91.60;;;;;;5073200;28;20232;-64
2022/04/10 09:28:43;;;;;;;6.47;2.80;;;11.10;91.30;;;;;;5072742;28;20223;-64
2022/04/10 09:31:27;;;;;;;8.85;3.40;;;11.00;91.00;;;;;;5072914;28;20234;-64
2022/04/10 09:33:54;;;;;;;12.15;5.78;;;11.10;91.30;;;;;;5070691;28;20227;-63
2022/04/10 09:36:36;;;;;;;8.57;3.88;;;11.10;91.20;;;;;;5052196;28;20229;-64
2022/04/10 09:39:06;;;;;;;9.98;6.32;;;11.10;90.80;;;;;;5051934;28;20216;-64
2022/04/10 09:41:33;;;;;;;9.50;6.25;;;11.20;89.90;;;;;;5058976;28;20247;-64
2022/04/10 09:44:01;;;;;;;11.10;5.22;;;11.20;89.60;;;;;;5051556;28;20217;-64
2022/04/10 09:46:30;;;;;;;6.55;4.60;;;11.20;89.60;;;;;;5052225;28;20229;-64
2022/04/10 09:48:57;;;;;;;7.40;3.28;;;11.20;88.50;;;;;;5061484;28;20678;-64
2022/04/10 09:51:24;;;;;;;6.20;4.00;;;11.30;88.50;;;;;;5072686;28;20610;-64
2022/04/10 09:54:06;;;;;;;4.97;2.88;;;11.30;88.80;;;;;;5072340;28;20228;-64
2022/04/10 09:56:33;;;;;;;5.97;3.80;;;11.30;90.00;;;;;;5072512;28;20228;-64
2022/04/10 09:59:01;;;;;;;4.28;2.42;;;11.30;90.90;;;;;;5072098;28;20227;-64
2022/04/10 10:01:28;;;;;;;6.30;3.30;;;11.40;90.30;;;;;;5072695;28;20607;-64
2022/04/10 10:03:57;;;;;;;6.25;3.33;;;11.30;89.80;;;;;;5072247;28;20224;-64
2022/04/10 10:06:25;;;;;;;5.95;3.88;;;11.30;90.20;;;;;;5072633;28;20228;-64
2022/04/10 10:08:53;;;;;;;9.23;2.88;;;11.40;89.70;;;;;;5072257;28;20224;-64
2022/04/10 10:11:22;;;;;;;5.93;3.45;;;11.40;89.10;;;;;;5072037;28;20235;-64
2022/04/10 10:13:51;;;;;;;7.20;2.78;;;11.50;87.40;;;;;;5072025;28;20336;-63
2022/04/10 10:16:18;;;;;;;7.38;3.03;;;11.50;87.40;;;;;;5072502;28;20247;-63
2022/04/10 10:18:47;;;;;;;2.60;2.22;;;11.60;87.40;;;;;;5060234;28;20224;-64
2022/04/10 10:21:15;;;;;;;9.13;4.15;;;11.70;85.50;;;;;;5052412;28;20228;-64
2022/04/10 10:23:47;;;;;;;7.53;2.63;;;11.70;84.50;;;;;;5050896;28;20228;-64
2022/04/10 10:26:35;;;;;;;6.10;3.13;;;11.70;83.70;;;;;;5052690;28;20232;-63
2022/04/10 10:29:14;;;;;;;9.68;4.85;;;11.80;82.30;;;;;;5052156;28;20229;-63
2022/04/10 10:32:01;;;;;;;6.13;3.42;;;11.80;81.00;;;;;;5052280;28;20251;-63
2022/04/10 10:34:29;;;;;;;7.10;3.60;;;11.80;81.80;;;;;;5052225;28;20225;-63
2022/04/10 10:36:57;;;;;;;8.10;3.05;;;11.80;82.10;;;;;;5052316;28;20221;-63
2022/04/10 10:39:24;;;;;;;6.13;2.85;;;11.70;81.90;;;;;;5052098;28;20224;-63
2022/04/10 10:41:52;;;;;;;5.90;3.28;;;11.80;81.70;;;;;;5052299;28;20224;-63
2022/04/10 10:44:42;;;;;;;9.50;3.35;;;11.70;81.30;;;;;;5052389;28;20225;-64
2022/04/10 10:47:17;;;;;;;6.70;3.03;;;11.80;81.70;;;;;;5052200;28;20221;-63
2022/04/10 10:49:45;;;;;;;4.63;2.47;;;11.80;80.10;;;;;;5052124;28;20216;-63
2022/04/10 10:52:13;;;;;;;3.85;2.70;;;11.90;80.20;;;;;;5051927;28;20294;-64
2022/04/10 10:54:45;;;;;;;4.22;2.45;;;12.00;80.00;;;;;;5052249;28;20275;-64
2022/04/10 10:57:39;;;;;;;4.30;3.17;;;12.10;80.00;;;;;;5051502;28;20232;-63
2022/04/10 11:00:19;;;;;;;6.55;4.30;;;12.20;79.70;;;;;;5051696;28;20685;-64
2022/04/10 11:02:49;;;;;;;3.85;3.05;;;12.30;77.60;;;;;;5052167;28;20221;-63
2022/04/10 11:05:30;;;;;;;8.50;3.55;;;12.30;77.50;;;;;;5051749;28;20236;-63
2022/04/10 11:07:58;;;;;;;6.07;4.10;;;12.50;78.10;;;;;;5052166;28;20221;-64
2022/04/10 11:10:28;;;;;;;10.30;4.60;;;12.50;74.80;;;;;;5052617;28;20232;-63
2022/04/10 11:13:01;;;;;;;7.35;3.70;;;12.60;74.70;;;;;;5055404;28;20315;-64
2022/04/10 11:15:32;;;;;;;8.98;6.63;;;12.70;74.00;;;;;;5055316;28;20237;-64
2022/04/10 11:18:22;;;;;;;7.50;5.40;;;12.70;72.30;;;;;;5055378;28;20681;-64
2022/04/10 11:20:57;;;;;;;15.00;7.13;;;12.60;72.80;;;;;;5055564;28;20224;-63
2022/04/10 11:23:29;;;;;;;7.63;5.68;;;12.60;72.70;;;;;;5055568;28;20219;-63
2022/04/10 11:26:02;;;;;;;6.40;4.50;;;12.50;72.70;;;;;;5055021;28;20251;-63
2022/04/10 11:28:31;;;;;;;8.38;5.07;;;12.40;72.10;;;;;;5055706;28;20303;-63
2022/04/10 11:31:02;;;;;;;3.75;2.90;;;12.40;70.90;;;;;;5054863;28;20254;-63
2022/04/10 11:33:49;;;;;;;6.13;3.78;;;12.30;73.30;;;;;;5055222;28;20221;-63
2022/04/10 11:36:18;;;;;;;4.93;2.83;;;12.20;77.70;;;;;;5054920;28;20270;-64
2022/04/10 11:39:09;;;;;;;8.32;6.18;;;12.00;82.60;;;;;;5055256;28;20224;-64
2022/04/10 11:41:37;;;;;;;8.20;4.35;;;11.90;85.50;;;;;;5055186;28;20228;-64
2022/04/10 11:44:07;;;;;;;4.18;3.78;;;11.70;87.50;;;;;;5055384;28;20229;-64
2022/04/10 11:46:34;;;;;;;6.25;2.50;;;11.60;88.60;;;;;;5054633;28;20229;-64
2022/04/10 11:49:02;;;;;;;3.00;2.78;;;11.50;89.70;;;;;;5055178;28;20613;-64
2022/04/10 11:51:29;;;;;;;7.60;3.10;;;11.40;90.70;;;;;;5054992;28;20243;-64
2022/04/10 11:53:56;;;;;;;3.90;3.03;;;11.40;91.40;;;;;;5054655;28;20228;-64
2022/04/10 11:56:23;;;;;;;8.93;4.78;;;11.30;91.50;;;;;;5054751;28;20231;-64
2022/04/10 11:58:57;;;;;;;5.68;3.78;;;11.30;91.50;;;;;;5054625;28;20248;-64
2022/04/10 12:01:25;;;;;;;9.75;5.10;;;11.30;92.00;;;;;;5054775;28;20227;-64
2022/04/10 12:03:52;;;;;;;7.00;5.47;;;11.20;92.30;;;;;;5054278;28;20573;-63
2022/04/10 12:06:20;;;;;;;6.45;4.25;;;11.30;92.10;;;;;;5054908;28;20228;-64
2022/04/10 12:08:48;;;;;;;4.60;3.35;;;11.30;91.90;;;;;;5054279;28;20228;-64
2022/04/10 12:11:15;;;;;;;8.18;3.88;;;11.20;90.30;;;;;;5054554;28;20225;-64
2022/04/10 12:13:42;;;;;;;7.53;3.53;;;11.20;89.60;;;;;;5054061;28;20336;-63
2022/04/10 12:16:11;;;;;;;6.75;3.55;;;11.10;89.60;;;;;;5054371;28;20235;-63
2022/04/10 12:18:49;;;;;;;8.10;3.08;;;11.20;90.20;;;;;;5054167;28;20228;-64
2022/04/10 12:21:16;;;;;;;3.95;3.08;;;11.20;90.30;;;;;;5054417;28;20224;-63
2022/04/10 12:23:45;;;;;;;5.13;2.78;;;11.30;90.40;;;;;;5053945;28;20739;-63
2022/04/10 12:26:13;;;;;;;3.92;2.67;;;11.30;89.30;;;;;;5054500;28;20225;-63
2022/04/10 12:28:42;;;;;;;4.30;3.40;;;11.30;88.40;;;;;;5054084;28;20216;-64
2022/04/10 12:31:09;;;;;;;5.47;2.95;;;11.40;88.50;;;;;;5054058;28;20237;-64
2022/04/10 12:33:37;;;;;;;5.75;3.00;;;11.40;89.10;;;;;;5053764;28;20233;-63
2022/04/10 12:36:18;;;;;;;5.47;3.90;;;11.50;88.90;;;;;;5054231;28;20556;-64
2022/04/10 12:38:45;;;;;;;6.47;3.67;;;11.60;88.40;;;;;;5053702;28;20235;-64
2022/04/10 12:41:11;;;;;;;8.40;5.05;;;11.60;86.60;;;;;;5053983;28;20232;-64
2022/04/10 12:43:38;;;;;;;10.07;6.53;;;11.60;85.70;;;;;;5053622;28;20225;-64
2022/04/10 12:46:12;;;;;;;9.13;6.70;;;11.60;85.90;;;;;;5054086;28;20315;-64
2022/04/10 12:48:40;;;;;;;4.70;3.35;;;11.70;86.20;;;;;;5053392;28;20225;-64
2022/04/10 12:51:07;;;;;;;5.53;3.42;;;11.70;86.50;;;;;;5053805;28;20224;-64
2022/04/10 12:53:36;;;;;;;5.95;5.10;;;11.80;85.10;;;;;;5053911;28;20224;-64
2022/04/10 12:56:03;;;;;;;7.05;4.90;;;11.70;80.60;;;;;;5053517;28;20767;-64
2022/04/10 12:58:44;;;;;;;7.50;5.80;;;11.70;79.90;;;;;;5053670;28;20236;-65
2022/04/10 13:01:25;;;;;;;10.60;8.10;;;11.70;80.00;;;;;;5053339;28;20229;-64